createdAt,value
2022-08-25T00:02:18.445Z,5.70
2022-08-25T00:05:42.508Z,5.60
2022-08-25T00:09:10.388Z,5.70
2022-08-25T00:15:34.542Z,5.60
2022-08-25T00:22:23.249Z,6.00
2022-08-25T00:25:26.892Z,6.62
2022-08-25T00:31:59.736Z,5.77
2022-08-25T00:38:54.664Z,5.90
2022-08-25T00:42:16.122Z,6.87
2022-08-25T00:48:54.514Z,5.60
2022-08-25T00:55:50.715Z,6.07
2022-08-25T01:02:44.956Z,6.00
2022-08-25T01:03:09.465Z,5.70
2022-08-25T01:06:50.236Z,5.53
2022-08-25T01:09:59.799Z,5.18
2022-08-25T01:20:46.597Z,5.32
2022-08-25T01:24:14.565Z,5.30
2022-08-25T01:31:24.046Z,5.50
2022-08-25T01:38:27.672Z,5.30
2022-08-25T01:42:09.641Z,5.53
2022-08-25T01:48:42.322Z,5.55
2022-08-25T01:52:17.978Z,5.80
2022-08-25T01:59:08.497Z,5.83
2022-08-25T02:02:10.572Z,5.68
2022-08-25T02:09:23.467Z,6.12
2022-08-25T02:19:35.613Z,5.72
2022-08-25T02:22:56.526Z,5.57
2022-08-25T02:26:07.148Z,5.87
2022-08-25T02:29:24.889Z,5.97
2022-08-25T02:32:33.570Z,5.73
2022-08-25T02:39:50.233Z,5.65
2022-08-25T02:43:06.817Z,5.47
2022-08-25T02:49:35.181Z,5.33
2022-08-25T02:52:59.745Z,5.47
2022-08-25T02:59:35.388Z,4.85
2022-08-25T03:02:40.229Z,5.25
2022-08-25T03:09:17.257Z,5.40
2022-08-25T03:12:33.949Z,5.60
2022-08-25T03:15:42.874Z,5.53
2022-08-25T03:18:54.525Z,5.05
2022-08-25T03:21:59.239Z,5.97
2022-08-25T03:25:34.454Z,5.37
2022-08-25T03:28:36.052Z,5.37
2022-08-25T03:31:44.450Z,4.90
2022-08-25T03:38:46.145Z,5.70
2022-08-25T03:44:59.083Z,5.53
2022-08-25T03:48:04.124Z,5.28
2022-08-25T03:54:59.098Z,5.57
2022-08-25T03:58:12.776Z,4.80
2022-08-25T04:04:59.431Z,5.93
2022-08-25T04:08:20.420Z,5.57
2022-08-25T04:11:28.851Z,5.37
2022-08-25T04:14:30.918Z,5.43
2022-08-25T04:24:30.509Z,6.78
2022-08-25T04:27:55.060Z,6.70
2022-08-25T04:31:03.975Z,6.85
2022-08-25T04:38:28.356Z,6.53
2022-08-25T04:41:44.738Z,5.87
2022-08-25T04:49:14.792Z,6.60
2022-08-25T05:02:34.324Z,6.40
2022-08-25T05:06:06.859Z,6.37
2022-08-25T05:12:39.205Z,6.55
2022-08-25T05:20:20.016Z,7.07
2022-08-25T05:23:37.178Z,6.37
2022-08-25T05:31:44.907Z,7.00
2022-08-25T06:11:33.089Z,5.72
2022-08-25T06:14:38.144Z,6.28
2022-08-25T06:17:39.765Z,6.05
2022-08-25T06:20:41.297Z,5.10
2022-08-25T06:23:42.850Z,5.05
2022-08-25T06:26:45.619Z,4.78
2022-08-25T06:29:47.185Z,6.32
2022-08-25T06:32:49.514Z,5.03
2022-08-25T06:35:55.652Z,4.70
2022-08-25T06:39:29.842Z,5.12
2022-08-25T06:43:12.175Z,4.28
2022-08-25T06:46:36.291Z,4.35
2022-08-25T06:49:40.126Z,4.68
2022-08-25T06:52:42.859Z,4.83
2022-08-25T06:55:58.023Z,5.18
2022-08-25T06:59:03.392Z,4.75
2022-08-25T07:02:06.167Z,5.03
2022-08-25T07:05:10.425Z,4.72
2022-08-25T07:20:43.880Z,4.18
2022-08-25T07:23:45.540Z,4.28
2022-08-25T07:30:30.685Z,7.10
2022-08-25T08:23:55.397Z,3.72
2022-08-25T08:27:29.512Z,2.92
2022-08-25T08:31:10.600Z,3.62
2022-08-25T08:34:33.659Z,2.93
2022-08-25T08:50:21.603Z,3.50
2022-08-25T08:53:48.475Z,3.27
2022-08-25T08:57:35.960Z,2.90
2022-08-25T09:00:57.390Z,3.12
2022-08-25T09:04:09.609Z,4.07
2022-08-25T09:07:18.885Z,4.12
2022-08-25T09:10:27.362Z,3.77
2022-08-25T09:14:20.260Z,3.72
2022-08-25T09:17:54.438Z,4.37
2022-08-25T09:25:39.816Z,3.20
2022-08-25T09:28:51.342Z,3.23
2022-08-25T09:31:56.501Z,2.97
2022-08-25T09:35:00.064Z,3.47
2022-08-25T09:38:05.175Z,3.70
2022-08-25T09:41:07.732Z,3.40
2022-08-25T09:44:21.620Z,3.00
2022-08-25T09:47:25.688Z,3.42
2022-08-25T09:50:50.095Z,3.50
2022-08-25T09:54:36.263Z,3.25
2022-08-25T09:58:19.614Z,3.55
2022-08-25T10:01:55.624Z,3.30
2022-08-25T10:05:23.331Z,3.10
2022-08-25T10:08:40.849Z,3.47
2022-08-25T10:11:46.698Z,4.32
2022-08-25T10:14:48.486Z,3.47
2022-08-25T10:17:53.164Z,3.50
2022-08-25T10:21:07.587Z,4.05
2022-08-25T10:24:13.576Z,3.50
2022-08-25T10:27:30.329Z,2.70
2022-08-25T10:30:55.127Z,2.97
2022-08-25T10:34:13.253Z,3.10
2022-08-25T10:37:32.752Z,3.33
2022-08-25T10:40:54.644Z,2.83
2022-08-25T10:44:10.949Z,3.35
2022-08-25T11:02:42.991Z,3.80
2022-08-25T11:14:39.001Z,3.20
2022-08-25T11:18:00.252Z,3.40
2022-08-25T11:21:40.752Z,2.87
2022-08-25T11:25:19.162Z,3.03
2022-08-25T11:29:12.258Z,3.17
2022-08-25T11:32:15.888Z,3.22
2022-08-25T11:35:27.022Z,3.37
2022-08-25T11:39:05.228Z,3.83
2022-08-25T11:42:41.575Z,3.53
2022-08-25T11:46:05.446Z,3.20
2022-08-25T11:49:46.957Z,3.37
2022-08-25T11:53:28.941Z,3.55
2022-08-25T11:57:04.528Z,3.70
2022-08-25T12:00:37.749Z,3.20
2022-08-25T12:04:44.418Z,3.37
2022-08-25T12:08:05.626Z,3.85
2022-08-25T12:11:11.266Z,3.17
2022-08-25T12:14:27.997Z,3.33
2022-08-25T12:17:38.483Z,3.42
2022-08-25T12:21:11.134Z,3.97
2022-08-25T12:24:15.260Z,4.10
2022-08-25T12:31:40.263Z,3.35
2022-08-25T12:35:40.130Z,3.30
2022-08-25T12:39:28.555Z,3.50
2022-08-25T12:43:08.016Z,4.22
2022-08-25T12:46:35.848Z,3.67
2022-08-25T12:57:45.475Z,3.73
2022-08-25T13:01:07.642Z,3.20
2022-08-25T13:04:31.590Z,3.30
2022-08-25T13:12:13.867Z,3.25
2022-08-25T13:15:40.372Z,3.40
2022-08-25T13:19:11.135Z,3.33
2022-08-25T13:22:18.257Z,3.60
2022-08-25T13:25:32.656Z,3.05
2022-08-25T13:41:09.519Z,3.12
2022-08-25T13:44:14.766Z,3.65
2022-08-25T13:47:32.993Z,3.03
2022-08-25T13:50:42.662Z,3.40
2022-08-25T13:53:51.754Z,3.35
2022-08-25T14:01:23.484Z,3.20
2022-08-25T14:04:57.637Z,3.62
2022-08-25T14:13:18.988Z,3.20
2022-08-25T14:17:36.348Z,3.80
2022-08-25T14:24:49.025Z,3.28
2022-08-25T14:28:08.056Z,3.30
2022-08-25T14:31:39.210Z,3.78
2022-08-25T14:34:47.716Z,3.45
2022-08-25T14:48:34.648Z,4.90
2022-08-25T14:51:58.424Z,4.20
2022-08-25T14:55:31.695Z,3.45
2022-08-25T14:58:34.375Z,3.42
2022-08-25T15:01:36.325Z,2.90
2022-08-25T15:04:42.586Z,2.95
2022-08-25T15:07:52.027Z,3.70
2022-08-25T15:14:54.765Z,3.20
2022-08-25T15:18:39.321Z,2.97
2022-08-25T15:30:07.743Z,3.45
2022-08-25T16:17:35.024Z,3.00
2022-08-25T16:55:47.415Z,2.97
2022-08-25T17:02:55.443Z,3.33
2022-08-25T17:12:59.107Z,2.87
2022-08-25T17:16:11.165Z,3.22
2022-08-25T17:19:35.396Z,3.20
2022-08-25T17:22:44.448Z,3.13
2022-08-25T17:26:01.055Z,3.22
2022-08-25T17:29:34.986Z,3.35
2022-08-25T17:32:47.793Z,3.17
2022-08-25T17:47:57.985Z,3.62
2022-08-25T18:10:32.997Z,3.87
2022-08-25T18:13:56.135Z,3.62
2022-08-25T18:17:21.951Z,3.70
2022-08-25T18:24:23.737Z,3.65
2022-08-25T18:27:45.855Z,3.78
2022-08-25T18:34:43.603Z,3.70
2022-08-25T18:38:06.715Z,3.47
2022-08-25T18:41:11.614Z,3.30
2022-08-25T18:44:15.499Z,3.55
2022-08-25T18:47:17.280Z,3.42
2022-08-25T18:50:44.250Z,3.20
2022-08-25T18:54:01.618Z,3.70
2022-08-25T18:57:23.395Z,4.05
2022-08-25T19:00:45.846Z,3.62
2022-08-25T19:04:07.898Z,4.65
2022-08-25T19:07:29.870Z,4.00
2022-08-25T19:10:52.801Z,4.25
2022-08-25T19:14:14.477Z,3.70
2022-08-25T19:17:37.910Z,4.20
2022-08-25T19:21:00.053Z,4.25
2022-08-25T19:24:21.882Z,4.23
2022-08-25T19:39:23.268Z,4.00
2022-08-25T19:43:00.289Z,4.53
2022-08-25T19:46:43.785Z,4.97
2022-08-25T19:50:02.060Z,4.20
2022-08-25T19:53:10.979Z,4.95
2022-08-25T19:56:15.055Z,4.47
2022-08-25T19:59:17.991Z,4.65
2022-08-25T20:02:23.395Z,4.95
2022-08-25T20:05:28.725Z,4.47
2022-08-25T20:08:32.010Z,4.50
2022-08-25T20:11:49.413Z,5.27
2022-08-25T20:15:34.247Z,5.00
2022-08-25T20:22:36.430Z,4.62
2022-08-25T20:25:58.830Z,4.00
2022-08-25T20:29:40.399Z,3.73
2022-08-25T20:36:50.370Z,5.18
2022-08-25T20:39:52.349Z,4.00
2022-08-25T20:42:55.488Z,3.85
2022-08-25T20:46:02.377Z,4.30
2022-08-25T21:33:57.182Z,4.12
2022-08-25T22:07:18.943Z,3.67
2022-08-25T22:31:03.965Z,3.87
2022-08-25T22:39:28.102Z,3.90
2022-08-25T22:47:23.895Z,4.53
2022-08-25T22:51:14.108Z,4.70
2022-08-25T22:58:28.020Z,5.15
2022-08-25T23:02:08.546Z,4.53
2022-08-25T23:20:45.223Z,4.12
2022-08-25T23:24:07.763Z,4.80
2022-08-25T23:27:52.415Z,4.37
2022-08-25T23:31:15.215Z,4.50
2022-08-25T23:34:16.721Z,4.53
2022-08-25T23:37:27.587Z,4.22
2022-08-25T23:48:56.829Z,5.00
2022-08-25T23:52:20.274Z,4.55
